Latest Weather Observations for Moruya Airport

IDN60801

Issued at 11:23 pm EDT Wednesday 1 February 2023 (issued every 10 minutes, with the page automatically refreshed every 10 minutes)

About weather observations | Map of weather stations | Latest weather observations for NSW | Other Formats
Station Details ID: 069148 Name: MORUYA AIRPORT AWS Lat: -35.90 Lon: 150.14 Height: 4.0 m
Data from the previous 72 hours. | See also: Recent months at Moruya Airport
Date/Time
EDT
Temp
°C
App
Temp
°C
Dew
Point
°C
Rel
Hum
%
Delta-T
°C
Wind Press
QNH
hPa
Press
MSL
hPa
Rain since
9am
mm
Dir  Spd
km/h
Gust
km/h
Spd
kts
Gust
kts
01/11:00pm 19.4 20.6 18.2 93 0.7 WSW 9 13 5 7 1003.5 1003.4 1.2
01/10:42pm 19.5 20.7 18.3 93 0.7 WSW 9 13 5 7 1003.6 1003.5 1.2
01/10:30pm 19.4 21.0 18.2 93 0.7 W 7 11 4 6 1003.7 1003.6 1.0
01/10:00pm 19.6 21.2 18.3 92 0.8 SSW 7 9 4 5 1003.8 1003.7 1.0
01/09:43pm 19.6 22.1 18.1 91 0.9 SSW 2 6 1 3 1003.6 1003.5 1.0
01/09:30pm 19.6 21.3 18.1 91 0.9 SSW 6 7 3 4 1003.6 1003.5 1.0
01/09:00pm 20.1 22.2 18.2 89 1.2 SSW 4 9 2 5 1003.4 1003.3 0.6
01/08:48pm 20.0 21.1 18.0 88 1.2 S 9 11 5 6 1003.3 1003.2 0.6
01/08:46pm 20.1 21.2 18.1 88 1.2 S 9 11 5 6 1003.2 1003.1 0.4
01/08:30pm 20.3 21.7 17.9 86 1.5 SSE 7 11 4 6 1003.0 1002.9 0.4
01/08:00pm 20.9 21.4 17.5 81 2.1 ESE 11 15 6 8 1002.6 1002.5 0.0
01/07:58pm 20.9 21.4 17.5 81 2.1 ESE 11 15 6 8 1002.5 1002.4 0.0
01/07:30pm 21.8 21.8 17.2 75 2.8 SE 13 17 7 9 1002.3 1002.2 0.0
01/07:00pm 22.2 21.8 17.1 73 3.1 ESE 15 20 8 11 1001.9 1001.8 0.0
01/06:30pm 22.4 22.4 17.3 73 3.1 ESE 13 17 7 9 1001.7 1001.6 0.0
01/06:00pm 22.6 22.6 17.3 72 3.3 ESE 13 17 7 9 1001.5 1001.4 0.0
01/05:30pm 23.1 23.3 17.6 71 3.4 E 13 17 7 9 1001.5 1001.4 0.0
01/05:00pm 23.5 23.5 17.3 68 3.9 E 13 15 7 8 1001.6 1001.5 0.0
01/04:30pm 23.8 23.8 17.3 67 4.0 E 13 17 7 9 1001.8 1001.7 0.0
01/04:00pm 23.5 23.3 17.5 69 3.7 ESE 15 19 8 10 1002.0 1001.9 0.0
01/03:30pm 23.5 22.8 17.3 68 3.8 SSE 17 20 9 11 1002.2 1002.1 0.0
01/03:00pm 24.4 23.8 17.6 66 4.3 SE 17 22 9 12 1002.2 1002.1 0.0
01/02:30pm 23.4 22.3 16.4 64 4.3 SE 17 24 9 13 1002.5 1002.4 0.0
01/02:00pm 23.9 22.6 16.9 65 4.3 ESE 19 24 10 13 1002.7 1002.6 0.0
01/01:30pm 23.8 22.5 16.8 65 4.3 ESE 19 24 10 13 1003.1 1003.0 0.0
01/01:00pm 24.4 23.7 17.4 65 4.4 ESE 17 22 9 12 1003.3 1003.2 0.0
01/12:30pm 23.7 23.2 17.0 66 4.1 ESE 15 20 8 11 1003.4 1003.3 0.0
01/12:00pm 24.0 23.7 16.5 63 4.6 SE 13 17 7 9 1003.7 1003.6 0.0
01/11:30am 23.9 24.0 17.4 67 4.0 ESE 13 19 7 10 1003.8 1003.7 0.0
01/11:00am 23.2 23.0 16.7 67 4.0 SE 13 17 7 9 1003.8 1003.7 0.0
01/10:30am 22.9 22.4 16.0 65 4.2 ESE 13 19 7 10 1003.9 1003.8 0.0
01/10:00am 23.6 23.1 15.9 62 4.7 ESE 13 17 7 9 1003.8 1003.7 0.0
01/09:30am 22.9 22.4 15.0 61 4.7 SE 11 15 6 8 1004.0 1003.9 0.0
01/09:00am 21.9 22.5 15.3 66 3.9 SSE 6 9 3 5 1004.0 1003.9 0.2
01/08:30am 20.4 21.3 16.6 79 2.3 SW 7 11 4 6 1004.0 1003.9 0.2
01/08:00am 19.6 19.9 17.0 85 1.6 SW 11 13 6 7 1003.9 1003.8 0.2
01/07:30am 18.5 20.1 16.8 90 1.0 WSW 4 9 2 5 1003.5 1003.4 0.2
01/07:00am 17.0 17.8 15.9 93 0.6 WSW 6 6 3 3 1003.3 1003.2 0.2
01/06:30am 16.5 16.9 15.2 92 0.8 WSW 7 9 4 5 1003.3 1003.2 0.2
01/06:00am 16.8 18.5 15.2 90 0.9 CALM 0 0 0 0 1003.1 1003.0 0.2
01/05:30am 17.6 18.9 15.2 86 1.4 W 2 6 1 3 1003.1 1003.0 0.2
01/05:00am 18.4 18.5 15.6 84 1.7 W 9 15 5 8 1003.2 1003.1 0.2
01/04:30am 18.6 18.8 15.8 84 1.7 W 9 15 5 8 1003.3 1003.2 0.2
01/04:00am 18.8 19.6 16.4 86 1.4 WSW 7 9 4 5 1003.3 1003.2 0.2
01/03:30am 18.8 19.5 16.0 84 1.7 W 7 9 4 5 1003.6 1003.5 0.2
01/03:00am 19.4 20.1 16.1 81 2.0 W 7 9 4 5 1003.8 1003.7 0.2
01/02:30am 20.0 20.4 16.2 79 2.3 WSW 9 15 5 8 1004.2 1004.1 0.2
01/02:00am 20.0 20.0 16.2 79 2.3 WSW 11 15 6 8 1004.4 1004.3 0.2
01/01:30am 20.0 20.4 16.2 79 2.3 WSW 9 13 5 7 1004.4 1004.3 0.2
01/01:00am 20.2 20.2 16.2 78 2.4 WSW 11 13 6 7 1004.6 1004.5 0.2
01/12:30am 20.2 20.2 16.2 78 2.4 WSW 11 15 6 8 1004.9 1004.8 0.2
01/12:00am 20.3 19.9 16.3 78 2.4 SW 13 19 7 10 1005.0 1004.9 0.2
 
Date/Time
EDT
Temp
°C
App
Temp
°C
Dew
Point
°C
Rel
Hum
%
Delta-T
°C
Wind Press
QNH
hPa
Press
MSL
hPa
Rain since
9am
mm
Dir  Spd
km/h
Gust
km/h
Spd
kts
Gust
kts
31/11:30pm 20.3 20.3 16.3 78 2.4 WSW 11 15 6 8 1005.2 1005.1 0.2
31/11:00pm 20.4 20.4 16.2 77 2.5 WSW 11 15 6 8 1005.5 1005.4 0.2
31/10:30pm 20.3 20.3 16.3 78 2.4 SW 11 15 6 8 1005.8 1005.7 0.2
31/10:00pm 20.4 20.0 16.2 77 2.5 SW 13 17 7 9 1005.7 1005.6 0.2
31/09:30pm 20.3 20.3 16.3 78 2.4 SW 11 13 6 7 1005.9 1005.8 0.2
31/09:00pm 20.6 20.2 16.2 76 2.7 SSW 13 19 7 10 1005.7 1005.6 0.2
31/08:30pm 20.8 20.0 16.2 75 2.8 S 15 22 8 12 1005.3 1005.2 0.2
31/08:00pm 21.3 19.8 16.3 73 3.0 S 19 28 10 15 1004.9 1004.8 0.2
31/07:30pm 21.8 19.7 16.3 71 3.3 S 22 30 12 16 1004.5 1004.4 0.2
31/07:00pm 22.2 19.5 16.5 70 3.5 S 26 37 14 20 1004.4 1004.3 0.2
31/06:30pm 23.0 20.6 16.5 67 4.0 S 24 33 13 18 1004.1 1004.0 0.2
31/06:00pm 23.2 20.1 16.5 66 4.1 SSE 28 33 15 18 1004.0 1003.9 0.2
31/05:30pm 23.5 21.0 17.0 67 4.0 SSE 26 35 14 19 1004.0 1003.9 0.2
31/05:00pm 23.6 20.3 17.1 67 4.0 SSE 30 41 16 22 1004.2 1004.1 0.2
31/04:30pm 24.0 21.2 17.3 66 4.2 SSE 28 37 15 20 1004.4 1004.3 0.2
31/04:00pm 24.2 21.4 17.4 65 4.2 SSE 28 41 15 22 1004.5 1004.4 0.2
31/03:30pm 24.4 21.7 17.6 66 4.2 SSE 28 39 15 21 1004.6 1004.5 0.2
31/03:00pm 23.6 20.6 16.9 66 4.1 SSE 28 39 15 21 1004.7 1004.6 0.2
31/02:30pm 24.7 22.7 18.2 67 4.1 SSE 26 37 14 20 1004.9 1004.8 0.2
31/02:00pm 23.5 20.6 16.1 63 4.5 SSE 26 37 14 20 1005.3 1005.2 0.2
31/01:30pm 24.1 21.4 16.6 63 4.6 SSE 26 35 14 19 1005.5 1005.4 0.2
31/01:00pm 23.7 22.2 16.7 65 4.3 S 20 30 11 16 1005.9 1005.8 0.2
31/12:30pm 23.0 20.5 17.0 69 3.7 SSE 26 35 14 19 1006.2 1006.1 0.2
31/12:00pm 22.5 19.3 16.3 68 3.8 SSE 28 35 15 19 1006.4 1006.3 0.2
31/11:30am 22.7 20.9 16.9 70 3.6 SSE 22 33 12 18 1006.5 1006.4 0.2
31/11:00am 24.1 22.5 16.6 63 4.6 SSW 20 33 11 18 1006.7 1006.6 0.0
31/10:30am 22.2 21.2 16.7 71 3.4 SSW 17 24 9 13 1006.9 1006.8 0.0
31/10:00am 21.6 19.7 16.6 73 3.0 SW 22 30 12 16 1007.0 1006.9 0.0
31/09:30am 21.1 19.8 16.7 76 2.7 SW 19 26 10 14 1007.2 1007.1 0.0
31/09:00am 20.4 19.2 16.2 77 2.5 SW 17 24 9 13 1007.3 1007.2 12.2
31/08:30am 20.1 19.3 16.1 78 2.4 SSW 15 20 8 11 1007.4 1007.3 12.2
31/08:00am 19.9 19.1 16.0 78 2.3 SSW 15 20 8 11 1007.3 1007.2 12.2
31/07:30am 19.8 19.7 15.9 78 2.3 SSW 11 15 6 8 1007.0 1006.9 12.2
31/07:00am 19.6 18.7 15.9 79 2.2 SW 15 19 8 10 1006.7 1006.6 12.2
31/06:30am 19.0 19.2 15.7 81 2.0 WSW 9 15 5 8 1006.5 1006.4 12.2
31/06:00am 18.9 18.7 15.8 82 1.8 SW 11 13 6 7 1006.3 1006.2 12.2
31/05:30am 19.1 18.1 15.6 80 2.1 SW 15 17 8 9 1006.2 1006.1 12.2
31/05:00am 19.1 18.0 15.4 79 2.2 SW 15 20 8 11 1006.2 1006.1 12.2
31/04:30am 19.1 18.4 15.4 79 2.2 SW 13 17 7 9 1006.4 1006.3 12.2
31/04:00am 18.9 18.3 15.6 81 2.0 SW 13 17 7 9 1006.5 1006.4 12.2
31/03:30am 18.9 18.3 15.6 81 1.9 SW 13 15 7 8 1006.8 1006.7 12.2
31/03:00am 18.6 18.4 15.8 84 1.7 SW 11 15 6 8 1007.1 1007.0 12.2
31/02:30am 18.7 18.2 15.9 84 1.7 WSW 13 19 7 10 1007.1 1007.0 12.2
31/02:00am 18.7 18.3 16.1 85 1.6 WSW 13 17 7 9 1007.3 1007.2 12.2
31/01:30am 18.7 18.3 16.3 86 1.4 WSW 13 19 7 10 1007.8 1007.7 12.2
31/01:00am 18.6 18.2 16.2 86 1.4 WSW 13 17 7 9 1008.1 1008.0 12.2
31/12:30am 19.0 17.9 16.4 85 1.6 SW 17 20 9 11 1008.4 1008.3 12.2
31/12:00am 19.3 18.7 16.7 85 1.6 SW 15 19 8 10 1008.6 1008.5 12.2
 
Date/Time
EDT
Temp
°C
App
Temp
°C
Dew
Point
°C
Rel
Hum
%
Delta-T
°C
Wind Press
QNH
hPa
Press
MSL
hPa
Rain since
9am
mm
Dir  Spd
km/h
Gust
km/h
Spd
kts
Gust
kts
30/11:30pm 19.4 18.9 16.8 85 1.6 WSW 15 20 8 11 1008.8 1008.7 12.2
30/11:00pm 19.7 20.1 17.3 86 1.5 SW 11 15 6 8 1009.2 1009.1 12.2
30/10:30pm 19.9 19.9 17.3 85 1.6 SW 13 20 7 11 1009.6 1009.5 12.2
30/10:00pm 19.9 20.0 17.5 86 1.5 SW 13 17 7 9 1009.7 1009.6 12.2
30/09:30pm 19.9 20.0 17.5 86 1.5 WSW 13 19 7 10 1009.5 1009.4 12.2
30/09:00pm 19.9 20.0 17.5 86 1.5 WSW 13 15 7 8 1009.4 1009.3 12.2
30/08:30pm 19.9 20.0 17.5 86 1.5 SW 13 19 7 10 1009.4 1009.3 12.2
30/08:00pm 19.9 20.8 17.5 86 1.5 WSW 9 13 5 7 1009.3 1009.2 12.2
30/07:30pm 19.9 20.0 17.5 86 1.5 SW 13 17 7 9 1009.3 1009.2 12.2
30/07:00pm 19.9 19.7 17.7 87 1.4 SW 15 22 8 12 1009.0 1008.9 12.2
30/06:30pm 19.4 18.8 17.5 89 1.2 SW 17 20 9 11 1009.0 1008.9 12.2
30/06:00pm 19.0 18.5 17.7 92 0.8 SW 17 24 9 13 1009.1 1009.0 12.2
30/05:30pm 19.0 18.4 17.5 91 0.9 SW 17 20 9 11 1009.2 1009.1 12.2
30/05:00pm 19.3 18.9 18.0 92 0.8 SW 17 24 9 13 1009.3 1009.2 12.2
30/04:30pm 19.5 19.1 18.0 91 0.9 SW 17 22 9 12 1009.5 1009.4 12.2
30/04:00pm 19.4 19.0 18.1 92 0.8 SW 17 20 9 11 1009.6 1009.5 12.0
30/03:30pm 19.7 18.7 18.0 90 1.0 SSW 20 30 11 16 1009.5 1009.4 12.0
30/03:00pm 19.4 18.4 17.9 91 0.9 SSW 20 35 11 19 1009.7 1009.6 12.0
30/02:30pm 19.5 18.6 18.3 93 0.7 SSW 20 30 11 16 1010.0 1009.9 12.0
30/02:00pm 19.6 19.1 18.6 94 0.6 SSW 19 30 10 16 1010.1 1010.0 11.6
30/01:41pm 19.6 18.5 18.6 94 0.6 SSW 22 35 12 19 1010.1 1010.0 11.0
30/01:30pm 19.6 18.5 18.6 94 0.6 S 22 37 12 20 1010.1 1010.0 10.6
30/01:25pm 19.8 18.4 18.8 94 0.6 S 24 33 13 18 1010.1 1010.0 10.4
30/01:00pm 19.9 19.0 19.1 95 0.5 SSW 22 32 12 17 1010.3 1010.2 9.0
30/12:30pm 20.0 19.2 19.2 95 0.5 SSW 22 35 12 19 1010.5 1010.4 7.2
30/12:00pm 19.8 20.2 19.1 96 0.4 SW 15 20 8 11 1010.6 1010.5 5.8
30/11:30am 19.8 19.9 19.1 96 0.4 SW 17 22 9 12 1010.7 1010.6 4.6
30/11:00am 19.7 20.1 19.0 96 0.4 SW 15 20 8 11 1010.8 1010.7 3.0
30/10:52am 19.6 19.9 18.8 95 0.5 SW 15 20 8 11 1010.8 1010.7 2.2
30/10:30am 19.4 20.0 18.6 95 0.5 SW 13 19 7 10 1011.1 1011.0 1.6
30/10:24am 19.4 20.4 18.6 95 0.5 WSW 11 17 6 9 1011.1 1011.0 1.6
30/10:00am 19.5 19.8 18.7 95 0.5 SW 15 20 8 11 1011.1 1011.0 1.2
30/09:38am 19.6 19.4 18.6 94 0.6 SW 17 24 9 13 1011.2 1011.1 0.2
30/09:30am 19.6 19.8 18.6 94 0.6 SW 15 20 8 11 1011.1 1011.0 0.0
30/09:00am 19.6 20.2 18.6 94 0.6 SSW 13 17 7 9 1011.3 1011.2 12.8
30/08:54am 19.6 20.3 18.8 95 0.5 SW 13 17 7 9 1011.3 1011.2 12.8
30/08:40am 19.5 20.1 18.5 94 0.6 SW 13 20 7 11 1011.3 1011.2 12.8
30/08:30am 19.6 20.2 18.6 94 0.6 SW 13 17 7 9 1011.3 1011.2 12.8
30/08:00am 19.7 20.3 18.7 94 0.6 SW 13 17 7 9 1011.1 1011.0 12.8
30/07:30am 19.4 20.8 18.6 95 0.5 SW 9 15 5 8 1010.7 1010.6 12.8
30/07:00am 19.3 20.6 18.5 95 0.5 SW 9 13 5 7 1010.3 1010.2 12.8
30/06:30am 19.2 20.1 18.4 95 0.5 SW 11 17 6 9 1010.2 1010.1 12.6
30/06:00am 19.3 20.2 18.5 95 0.5 SW 11 20 6 11 1010.0 1009.9 12.4
30/05:30am 19.2 20.1 18.4 95 0.5 SSW 11 15 6 8 1009.7 1009.6 12.4
30/05:00am 19.2 20.1 18.4 95 0.5 SSW 11 13 6 7 1009.6 1009.5 12.2
30/04:30am 19.2 20.1 18.4 95 0.5 SW 11 13 6 7 1009.9 1009.8 12.2
30/04:00am 19.5 20.9 18.7 95 0.5 SSW 9 11 5 6 1009.7 1009.6 12.2
30/03:30am 19.6 21.6 18.8 95 0.5 SW 6 9 3 5 1010.2 1010.1 12.0
30/03:00am 19.7 22.9 18.9 95 0.5 CALM 0 0 0 0 1010.7 1010.6 12.0
30/02:30am 19.6 22.0 18.8 95 0.5 WNW 4 7 2 4 1010.6 1010.5 12.0
30/02:00am 19.6 21.6 18.8 95 0.5 WSW 6 7 3 4 1010.9 1010.8 11.8
30/01:30am 19.6 21.6 18.8 95 0.5 WSW 6 9 3 5 1011.6 1011.5 11.8
30/01:00am 19.6 21.1 18.8 95 0.5 WSW 9 13 5 7 1012.1 1012.0 11.8
30/12:30am 19.6 21.4 18.8 95 0.5 SW 7 9 4 5 1012.5 1012.4 11.8
30/12:00am 19.4 21.2 18.4 94 0.6 W 6 9 3 5 1013.2 1013.1 11.8
 
Date/Time
EDT
Temp
°C
App
Temp
°C
Dew
Point
°C
Rel
Hum
%
Delta-T
°C
Wind Press
QNH
hPa
Press
MSL
hPa
Rain since
9am
mm
Dir  Spd
km/h
Gust
km/h
Spd
kts
Gust
kts
29/11:56pm 19.5 21.2 18.5 94 0.6 WNW 7 11 4 6 1013.3 1013.2 11.8
29/11:30pm 19.5 21.2 18.5 94 0.6 WSW 7 11 4 6 1013.4 1013.3 11.6

Other formats

Comma delimited format used in spreadsheet applications
http://www.bom.gov.au/fwo/IDN60801/IDN60801.95937.axf

JavaScript Object Notation format (JSON) in row-major order
http://www.bom.gov.au/fwo/IDN60801/IDN60801.95937.json

Data quality

Most of these data are generated automatically and are frequently updated. Quality checks on data are not normally performed. It is possible for incorrect values to appear. Refer to information at About Latest Weather Observations and please check the disclaimer before using these data.